Terminal Aerodrome Forecast
Issued by NWS Spokane, WA

Home | Current Version | Previous Version | Text Only | Print | Product List | Glossary On
Versions: 1 2 3 4 5 6 7 8 9 10 11 12 13 14 15 16 17 18 19 20 21 22 23 24 25 26 27 28 29 30 31 32 33 34 35 36 37 38 39 40 41
000
FTUS46 KOTX 271739
TAFGEG
TAF
KGEG 271739Z 2718/2818 21025G38KT P6SM BKN080
     FM280200 20017G24KT P6SM OVC100
     FM280700 20016KT P6SM OVC050 PROB30 2812/2815 P6SM -RA OVC050
     FM281500 20021G28KT P6SM -RA OVC040=

USA.gov is the U.S. government's official web portal to all federal, state and local government web resources and services.